Terminal Aerodrome Forecast
Issued by NWS Northern Indiana

Home | Current Version | Previous Version | Text Only | Print | Product List | Glossary Off
Versions: 1 2 3 4 5 6 7 8 9 10 11 12 13 14

000
FTUS43 KIWX 062051 AAB
TAFFWA
TAF AMD
KFWA 062051Z 0621/0718 27009KT 6SM BR BKN012
      TEMPO 0623/0701 BKN009
     FM070500 26011KT P6SM SCT035 BKN120=

USA.gov is the U.S. government's official web portal to all federal, state and local government web resources and services.